sensor_id;sensor_type;location;lat;lon;timestamp;P1;durP1;ratioP1;P2;durP2;ratioP2
8791;SDS011;4432;50.890;4.744;2023-06-14T00:00:20;3.90;;;3.60;;
8791;SDS011;4432;50.890;4.744;2023-06-14T00:02:46;4.17;;;3.77;;
8791;SDS011;4432;50.890;4.744;2023-06-14T00:05:12;4.43;;;4.00;;
8791;SDS011;4432;50.890;4.744;2023-06-14T00:07:39;4.57;;;3.83;;
8791;SDS011;4432;50.890;4.744;2023-06-14T00:10:09;5.27;;;4.30;;
8791;SDS011;4432;50.890;4.744;2023-06-14T00:12:35;4.50;;;3.80;;
8791;SDS011;4432;50.890;4.744;2023-06-14T00:15:02;4.00;;;3.60;;
8791;SDS011;4432;50.890;4.744;2023-06-14T00:17:28;5.27;;;4.07;;
8791;SDS011;4432;50.890;4.744;2023-06-14T00:19:57;4.43;;;4.03;;
8791;SDS011;4432;50.890;4.744;2023-06-14T00:22:23;7.90;;;3.53;;
8791;SDS011;4432;50.890;4.744;2023-06-14T00:24:50;4.13;;;3.47;;
8791;SDS011;4432;50.890;4.744;2023-06-14T00:27:19;4.57;;;4.07;;
8791;SDS011;4432;50.890;4.744;2023-06-14T00:29:45;5.37;;;3.77;;
8791;SDS011;4432;50.890;4.744;2023-06-14T00:32:10;5.73;;;4.03;;
8791;SDS011;4432;50.890;4.744;2023-06-14T00:34:36;4.53;;;4.10;;
8791;SDS011;4432;50.890;4.744;2023-06-14T00:37:02;4.30;;;3.73;;
8791;SDS011;4432;50.890;4.744;2023-06-14T00:39:28;5.30;;;3.70;;
8791;SDS011;4432;50.890;4.744;2023-06-14T00:41:54;4.33;;;3.50;;
8791;SDS011;4432;50.890;4.744;2023-06-14T00:44:19;4.83;;;3.93;;
8791;SDS011;4432;50.890;4.744;2023-06-14T00:46:46;4.37;;;3.97;;
8791;SDS011;4432;50.890;4.744;2023-06-14T00:49:12;3.93;;;3.53;;
8791;SDS011;4432;50.890;4.744;2023-06-14T00:51:44;4.17;;;3.73;;
8791;SDS011;4432;50.890;4.744;2023-06-14T00:54:11;4.20;;;3.60;;
8791;SDS011;4432;50.890;4.744;2023-06-14T00:56:37;5.63;;;3.70;;
8791;SDS011;4432;50.890;4.744;2023-06-14T00:59:03;13.20;;;4.17;;
8791;SDS011;4432;50.890;4.744;2023-06-14T01:01:30;5.13;;;3.50;;
8791;SDS011;4432;50.890;4.744;2023-06-14T01:03:58;4.77;;;3.87;;
8791;SDS011;4432;50.890;4.744;2023-06-14T01:06:33;5.23;;;3.93;;
8791;SDS011;4432;50.890;4.744;2023-06-14T01:12:02;3.77;;;3.47;;
8791;SDS011;4432;50.890;4.744;2023-06-14T01:14:35;6.77;;;4.10;;
8791;SDS011;4432;50.890;4.744;2023-06-14T01:17:03;3.97;;;3.57;;
8791;SDS011;4432;50.890;4.744;2023-06-14T01:19:30;4.27;;;3.87;;
8791;SDS011;4432;50.890;4.744;2023-06-14T01:21:59;4.43;;;3.80;;
8791;SDS011;4432;50.890;4.744;2023-06-14T01:24:26;7.40;;;4.33;;
8791;SDS011;4432;50.890;4.744;2023-06-14T01:26:54;5.20;;;3.87;;
8791;SDS011;4432;50.890;4.744;2023-06-14T01:29:24;3.67;;;3.37;;
8791;SDS011;4432;50.890;4.744;2023-06-14T01:31:53;3.60;;;3.30;;
8791;SDS011;4432;50.890;4.744;2023-06-14T01:34:19;5.13;;;3.90;;
8791;SDS011;4432;50.890;4.744;2023-06-14T01:36:45;7.63;;;4.20;;
8791;SDS011;4432;50.890;4.744;2023-06-14T01:39:13;3.93;;;3.53;;
8791;SDS011;4432;50.890;4.744;2023-06-14T01:41:40;4.20;;;3.80;;
8791;SDS011;4432;50.890;4.744;2023-06-14T01:44:07;4.77;;;4.00;;
8791;SDS011;4432;50.890;4.744;2023-06-14T01:46:34;5.63;;;4.03;;
8791;SDS011;4432;50.890;4.744;2023-06-14T01:49:01;5.10;;;4.13;;
8791;SDS011;4432;50.890;4.744;2023-06-14T01:51:27;7.43;;;3.73;;
8791;SDS011;4432;50.890;4.744;2023-06-14T01:53:53;4.60;;;3.97;;
8791;SDS011;4432;50.890;4.744;2023-06-14T01:56:19;4.87;;;3.80;;
8791;SDS011;4432;50.890;4.744;2023-06-14T01:58:45;5.27;;;3.70;;
8791;SDS011;4432;50.890;4.744;2023-06-14T02:01:10;7.30;;;4.27;;
8791;SDS011;4432;50.890;4.744;2023-06-14T02:03:37;4.33;;;3.93;;
8791;SDS011;4432;50.890;4.744;2023-06-14T02:06:04;5.80;;;3.70;;
8791;SDS011;4432;50.890;4.744;2023-06-14T02:08:29;4.30;;;3.73;;
8791;SDS011;4432;50.890;4.744;2023-06-14T02:10:55;4.57;;;4.07;;
8791;SDS011;4432;50.890;4.744;2023-06-14T02:13:21;8.47;;;3.93;;
8791;SDS011;4432;50.890;4.744;2023-06-14T02:15:47;8.10;;;4.30;;
8791;SDS011;4432;50.890;4.744;2023-06-14T02:18:16;5.77;;;4.00;;
8791;SDS011;4432;50.890;4.744;2023-06-14T02:20:42;5.37;;;4.17;;
8791;SDS011;4432;50.890;4.744;2023-06-14T02:23:08;4.97;;;4.20;;
8791;SDS011;4432;50.890;4.744;2023-06-14T02:25:33;4.73;;;4.17;;
8791;SDS011;4432;50.890;4.744;2023-06-14T02:28:00;4.40;;;4.00;;
8791;SDS011;4432;50.890;4.744;2023-06-14T02:30:25;6.60;;;4.57;;
8791;SDS011;4432;50.890;4.744;2023-06-14T02:32:51;10.33;;;4.73;;
8791;SDS011;4432;50.890;4.744;2023-06-14T02:35:18;4.30;;;3.90;;
8791;SDS011;4432;50.890;4.744;2023-06-14T02:37:45;4.33;;;3.93;;
8791;SDS011;4432;50.890;4.744;2023-06-14T02:40:11;4.90;;;4.40;;
8791;SDS011;4432;50.890;4.744;2023-06-14T02:42:37;4.77;;;4.27;;
8791;SDS011;4432;50.890;4.744;2023-06-14T02:45:03;5.07;;;4.40;;
8791;SDS011;4432;50.890;4.744;2023-06-14T02:47:29;5.13;;;4.40;;
8791;SDS011;4432;50.890;4.744;2023-06-14T02:49:55;5.37;;;3.77;;
8791;SDS011;4432;50.890;4.744;2023-06-14T02:52:21;6.77;;;4.30;;
8791;SDS011;4432;50.890;4.744;2023-06-14T02:54:47;6.37;;;4.30;;
8791;SDS011;4432;50.890;4.744;2023-06-14T02:57:12;4.73;;;4.30;;
8791;SDS011;4432;50.890;4.744;2023-06-14T02:59:38;5.77;;;5.10;;
8791;SDS011;4432;50.890;4.744;2023-06-14T03:02:04;4.57;;;4.17;;
8791;SDS011;4432;50.890;4.744;2023-06-14T03:04:30;4.87;;;4.47;;
8791;SDS011;4432;50.890;4.744;2023-06-14T03:07:02;4.63;;;4.23;;
8791;SDS011;4432;50.890;4.744;2023-06-14T03:09:37;6.03;;;4.90;;
8791;SDS011;4432;50.890;4.744;2023-06-14T03:12:03;6.23;;;5.13;;
8791;SDS011;4432;50.890;4.744;2023-06-14T03:14:32;5.90;;;4.33;;
8791;SDS011;4432;50.890;4.744;2023-06-14T03:16:58;5.43;;;4.70;;
8791;SDS011;4432;50.890;4.744;2023-06-14T03:19:25;6.47;;;4.83;;
8791;SDS011;4432;50.890;4.744;2023-06-14T03:21:51;5.97;;;4.67;;
8791;SDS011;4432;50.890;4.744;2023-06-14T03:24:18;5.67;;;4.83;;
8791;SDS011;4432;50.890;4.744;2023-06-14T03:26:45;5.50;;;4.80;;
8791;SDS011;4432;50.890;4.744;2023-06-14T03:29:11;5.03;;;4.53;;
8791;SDS011;4432;50.890;4.744;2023-06-14T03:31:41;5.00;;;4.50;;
8791;SDS011;4432;50.890;4.744;2023-06-14T03:34:21;5.80;;;4.90;;
8791;SDS011;4432;50.890;4.744;2023-06-14T03:36:51;4.87;;;4.33;;
8791;SDS011;4432;50.890;4.744;2023-06-14T03:39:17;5.57;;;4.60;;
8791;SDS011;4432;50.890;4.744;2023-06-14T03:41:43;5.17;;;4.60;;
8791;SDS011;4432;50.890;4.744;2023-06-14T03:44:08;5.50;;;4.40;;
8791;SDS011;4432;50.890;4.744;2023-06-14T03:46:34;5.40;;;4.20;;
8791;SDS011;4432;50.890;4.744;2023-06-14T03:49:00;6.07;;;4.67;;
8791;SDS011;4432;50.890;4.744;2023-06-14T03:51:28;5.97;;;4.77;;
8791;SDS011;4432;50.890;4.744;2023-06-14T03:53:54;5.77;;;4.80;;
8791;SDS011;4432;50.890;4.744;2023-06-14T03:56:21;6.50;;;4.87;;
8791;SDS011;4432;50.890;4.744;2023-06-14T03:58:46;7.43;;;4.80;;
8791;SDS011;4432;50.890;4.744;2023-06-14T04:01:13;6.50;;;4.47;;
8791;SDS011;4432;50.890;4.744;2023-06-14T04:03:39;5.77;;;4.63;;
8791;SDS011;4432;50.890;4.744;2023-06-14T04:06:05;8.67;;;5.23;;
8791;SDS011;4432;50.890;4.744;2023-06-14T04:08:32;6.33;;;5.07;;
8791;SDS011;4432;50.890;4.744;2023-06-14T04:10:59;6.20;;;5.00;;
8791;SDS011;4432;50.890;4.744;2023-06-14T04:13:25;8.23;;;5.53;;
8791;SDS011;4432;50.890;4.744;2023-06-14T04:15:51;5.33;;;4.70;;
8791;SDS011;4432;50.890;4.744;2023-06-14T04:18:17;7.90;;;5.30;;
8791;SDS011;4432;50.890;4.744;2023-06-14T04:20:44;7.07;;;5.17;;
8791;SDS011;4432;50.890;4.744;2023-06-14T04:23:11;7.00;;;4.70;;
8791;SDS011;4432;50.890;4.744;2023-06-14T04:25:43;11.50;;;5.27;;
8791;SDS011;4432;50.890;4.744;2023-06-14T04:28:15;5.40;;;4.87;;
8791;SDS011;4432;50.890;4.744;2023-06-14T04:30:42;8.17;;;5.03;;
8791;SDS011;4432;50.890;4.744;2023-06-14T04:33:09;6.40;;;4.73;;
8791;SDS011;4432;50.890;4.744;2023-06-14T04:35:36;6.63;;;5.00;;
8791;SDS011;4432;50.890;4.744;2023-06-14T04:38:03;5.27;;;4.77;;
8791;SDS011;4432;50.890;4.744;2023-06-14T04:40:38;6.97;;;4.97;;
8791;SDS011;4432;50.890;4.744;2023-06-14T04:43:09;6.20;;;4.50;;
8791;SDS011;4432;50.890;4.744;2023-06-14T04:45:37;10.43;;;5.63;;
8791;SDS011;4432;50.890;4.744;2023-06-14T04:48:04;8.17;;;5.27;;
8791;SDS011;4432;50.890;4.744;2023-06-14T04:50:31;5.03;;;4.03;;
8791;SDS011;4432;50.890;4.744;2023-06-14T04:52:58;6.47;;;4.87;;
8791;SDS011;4432;50.890;4.744;2023-06-14T04:55:24;6.23;;;4.80;;
8791;SDS011;4432;50.890;4.744;2023-06-14T04:57:51;9.90;;;4.37;;
8791;SDS011;4432;50.890;4.744;2023-06-14T05:00:19;4.90;;;4.40;;
8791;SDS011;4432;50.890;4.744;2023-06-14T05:02:45;9.97;;;5.47;;
8791;SDS011;4432;50.890;4.744;2023-06-14T05:05:12;8.27;;;5.40;;
8791;SDS011;4432;50.890;4.744;2023-06-14T05:07:38;7.90;;;5.00;;
8791;SDS011;4432;50.890;4.744;2023-06-14T05:10:04;5.90;;;4.93;;
8791;SDS011;4432;50.890;4.744;2023-06-14T05:12:31;6.80;;;4.63;;
8791;SDS011;4432;50.890;4.744;2023-06-14T05:14:56;5.40;;;4.83;;
8791;SDS011;4432;50.890;4.744;2023-06-14T05:17:23;7.07;;;4.63;;
8791;SDS011;4432;50.890;4.744;2023-06-14T05:19:50;8.60;;;4.93;;
8791;SDS011;4432;50.890;4.744;2023-06-14T05:22:15;6.00;;;5.03;;
8791;SDS011;4432;50.890;4.744;2023-06-14T05:24:41;5.67;;;5.00;;
8791;SDS011;4432;50.890;4.744;2023-06-14T05:27:07;7.30;;;5.03;;
8791;SDS011;4432;50.890;4.744;2023-06-14T05:29:33;11.80;;;4.80;;
8791;SDS011;4432;50.890;4.744;2023-06-14T05:31:59;5.67;;;4.80;;
8791;SDS011;4432;50.890;4.744;2023-06-14T05:34:25;5.97;;;4.93;;
8791;SDS011;4432;50.890;4.744;2023-06-14T05:36:50;8.93;;;5.27;;
8791;SDS011;4432;50.890;4.744;2023-06-14T05:39:16;8.87;;;4.97;;
8791;SDS011;4432;50.890;4.744;2023-06-14T05:41:42;6.53;;;4.90;;
8791;SDS011;4432;50.890;4.744;2023-06-14T05:44:08;9.40;;;4.93;;
8791;SDS011;4432;50.890;4.744;2023-06-14T05:46:34;6.63;;;5.07;;
8791;SDS011;4432;50.890;4.744;2023-06-14T05:49:00;5.67;;;4.30;;
8791;SDS011;4432;50.890;4.744;2023-06-14T05:51:26;6.20;;;5.00;;
8791;SDS011;4432;50.890;4.744;2023-06-14T05:53:52;6.77;;;5.40;;
8791;SDS011;4432;50.890;4.744;2023-06-14T05:56:18;5.33;;;4.80;;
8791;SDS011;4432;50.890;4.744;2023-06-14T05:58:44;7.57;;;4.60;;
8791;SDS011;4432;50.890;4.744;2023-06-14T06:01:10;5.67;;;4.97;;
8791;SDS011;4432;50.890;4.744;2023-06-14T06:03:36;7.20;;;4.77;;
8791;SDS011;4432;50.890;4.744;2023-06-14T06:06:02;7.43;;;4.70;;
8791;SDS011;4432;50.890;4.744;2023-06-14T06:08:28;4.53;;;4.13;;
8791;SDS011;4432;50.890;4.744;2023-06-14T06:10:54;5.47;;;4.47;;
8791;SDS011;4432;50.890;4.744;2023-06-14T06:13:21;4.70;;;4.30;;
8791;SDS011;4432;50.890;4.744;2023-06-14T06:15:47;5.70;;;4.80;;
8791;SDS011;4432;50.890;4.744;2023-06-14T06:18:13;6.30;;;4.53;;
8791;SDS011;4432;50.890;4.744;2023-06-14T06:20:39;5.20;;;4.30;;
8791;SDS011;4432;50.890;4.744;2023-06-14T06:23:05;6.07;;;4.43;;
8791;SDS011;4432;50.890;4.744;2023-06-14T06:25:30;6.67;;;4.67;;
8791;SDS011;4432;50.890;4.744;2023-06-14T06:27:57;5.17;;;4.10;;
8791;SDS011;4432;50.890;4.744;2023-06-14T06:30:23;5.33;;;4.47;;
8791;SDS011;4432;50.890;4.744;2023-06-14T06:32:49;7.53;;;4.47;;
8791;SDS011;4432;50.890;4.744;2023-06-14T06:35:16;4.40;;;4.00;;
8791;SDS011;4432;50.890;4.744;2023-06-14T06:37:42;4.30;;;3.90;;
8791;SDS011;4432;50.890;4.744;2023-06-14T06:40:08;4.70;;;4.10;;
8791;SDS011;4432;50.890;4.744;2023-06-14T06:42:35;9.73;;;4.73;;
8791;SDS011;4432;50.890;4.744;2023-06-14T06:45:01;4.23;;;3.83;;
8791;SDS011;4432;50.890;4.744;2023-06-14T06:47:27;6.77;;;3.97;;
8791;SDS011;4432;50.890;4.744;2023-06-14T06:49:53;6.70;;;4.20;;
8791;SDS011;4432;50.890;4.744;2023-06-14T06:52:19;6.37;;;4.50;;
8791;SDS011;4432;50.890;4.744;2023-06-14T06:54:45;4.70;;;4.00;;
8791;SDS011;4432;50.890;4.744;2023-06-14T06:57:11;8.33;;;4.40;;
8791;SDS011;4432;50.890;4.744;2023-06-14T06:59:37;8.10;;;4.87;;
8791;SDS011;4432;50.890;4.744;2023-06-14T07:02:03;4.60;;;4.10;;
8791;SDS011;4432;50.890;4.744;2023-06-14T07:04:29;5.43;;;4.50;;
8791;SDS011;4432;50.890;4.744;2023-06-14T07:06:54;6.17;;;5.10;;
8791;SDS011;4432;50.890;4.744;2023-06-14T07:09:20;10.80;;;4.70;;
8791;SDS011;4432;50.890;4.744;2023-06-14T07:11:46;5.00;;;4.33;;
8791;SDS011;4432;50.890;4.744;2023-06-14T07:14:12;6.47;;;4.30;;
8791;SDS011;4432;50.890;4.744;2023-06-14T07:16:39;7.13;;;4.17;;
8791;SDS011;4432;50.890;4.744;2023-06-14T07:19:06;8.23;;;4.27;;
8791;SDS011;4432;50.890;4.744;2023-06-14T07:21:32;8.07;;;4.50;;
8791;SDS011;4432;50.890;4.744;2023-06-14T07:23:58;4.67;;;4.10;;
8791;SDS011;4432;50.890;4.744;2023-06-14T07:26:23;5.67;;;4.27;;
8791;SDS011;4432;50.890;4.744;2023-06-14T07:28:50;7.07;;;3.93;;
8791;SDS011;4432;50.890;4.744;2023-06-14T07:31:16;5.77;;;4.20;;
8791;SDS011;4432;50.890;4.744;2023-06-14T07:33:44;4.27;;;3.53;;
8791;SDS011;4432;50.890;4.744;2023-06-14T07:36:10;4.77;;;4.27;;
8791;SDS011;4432;50.890;4.744;2023-06-14T07:38:36;5.80;;;4.73;;
8791;SDS011;4432;50.890;4.744;2023-06-14T07:41:02;5.57;;;4.03;;
8791;SDS011;4432;50.890;4.744;2023-06-14T07:43:29;4.70;;;3.83;;
8791;SDS011;4432;50.890;4.744;2023-06-14T07:45:55;9.27;;;4.37;;
8791;SDS011;4432;50.890;4.744;2023-06-14T07:48:22;8.07;;;4.07;;
8791;SDS011;4432;50.890;4.744;2023-06-14T07:50:48;4.83;;;4.23;;
8791;SDS011;4432;50.890;4.744;2023-06-14T07:53:13;6.13;;;4.03;;
8791;SDS011;4432;50.890;4.744;2023-06-14T07:55:39;6.23;;;4.43;;
8791;SDS011;4432;50.890;4.744;2023-06-14T07:58:07;5.27;;;3.97;;
8791;SDS011;4432;50.890;4.744;2023-06-14T08:00:33;7.10;;;4.00;;
8791;SDS011;4432;50.890;4.744;2023-06-14T08:02:59;4.03;;;3.47;;
8791;SDS011;4432;50.890;4.744;2023-06-14T08:05:25;5.73;;;3.90;;
8791;SDS011;4432;50.890;4.744;2023-06-14T08:07:51;4.80;;;4.10;;
8791;SDS011;4432;50.890;4.744;2023-06-14T08:10:17;4.20;;;3.67;;
8791;SDS011;4432;50.890;4.744;2023-06-14T08:12:43;4.83;;;3.93;;
8791;SDS011;4432;50.890;4.744;2023-06-14T08:15:09;4.60;;;3.97;;
8791;SDS011;4432;50.890;4.744;2023-06-14T08:17:35;5.80;;;3.73;;
8791;SDS011;4432;50.890;4.744;2023-06-14T08:20:01;5.07;;;4.23;;
8791;SDS011;4432;50.890;4.744;2023-06-14T08:22:29;4.47;;;3.90;;
8791;SDS011;4432;50.890;4.744;2023-06-14T08:24:59;4.60;;;4.07;;
8791;SDS011;4432;50.890;4.744;2023-06-14T08:27:26;5.23;;;4.40;;
8791;SDS011;4432;50.890;4.744;2023-06-14T08:29:52;5.97;;;3.83;;
8791;SDS011;4432;50.890;4.744;2023-06-14T08:32:19;5.30;;;4.17;;
8791;SDS011;4432;50.890;4.744;2023-06-14T08:34:45;9.77;;;4.70;;
8791;SDS011;4432;50.890;4.744;2023-06-14T08:37:11;9.60;;;4.70;;
8791;SDS011;4432;50.890;4.744;2023-06-14T08:39:37;5.10;;;3.63;;
8791;SDS011;4432;50.890;4.744;2023-06-14T08:42:03;6.70;;;4.47;;
8791;SDS011;4432;50.890;4.744;2023-06-14T08:44:31;6.93;;;3.43;;
8791;SDS011;4432;50.890;4.744;2023-06-14T08:46:59;5.43;;;3.90;;
8791;SDS011;4432;50.890;4.744;2023-06-14T08:49:25;7.97;;;3.60;;
8791;SDS011;4432;50.890;4.744;2023-06-14T08:51:57;5.23;;;4.13;;
8791;SDS011;4432;50.890;4.744;2023-06-14T08:54:27;7.50;;;3.93;;
8791;SDS011;4432;50.890;4.744;2023-06-14T08:56:59;7.43;;;4.00;;
8791;SDS011;4432;50.890;4.744;2023-06-14T08:59:25;4.27;;;3.33;;
8791;SDS011;4432;50.890;4.744;2023-06-14T09:01:52;6.27;;;3.93;;
8791;SDS011;4432;50.890;4.744;2023-06-14T09:04:20;4.77;;;3.63;;
8791;SDS011;4432;50.890;4.744;2023-06-14T09:06:47;4.63;;;4.10;;
8791;SDS011;4432;50.890;4.744;2023-06-14T09:09:22;4.03;;;3.63;;
8791;SDS011;4432;50.890;4.744;2023-06-14T09:11:52;6.27;;;3.77;;
8791;SDS011;4432;50.890;4.744;2023-06-14T09:14:18;4.60;;;3.90;;
8791;SDS011;4432;50.890;4.744;2023-06-14T09:16:45;4.73;;;3.70;;
8791;SDS011;4432;50.890;4.744;2023-06-14T09:19:14;4.00;;;3.60;;
8791;SDS011;4432;50.890;4.744;2023-06-14T09:21:47;4.23;;;3.80;;
8791;SDS011;4432;50.890;4.744;2023-06-14T09:24:14;3.37;;;3.07;;
8791;SDS011;4432;50.890;4.744;2023-06-14T09:26:40;4.77;;;3.60;;
8791;SDS011;4432;50.890;4.744;2023-06-14T09:29:06;5.93;;;3.70;;
8791;SDS011;4432;50.890;4.744;2023-06-14T09:31:31;4.10;;;3.17;;
8791;SDS011;4432;50.890;4.744;2023-06-14T09:33:58;5.57;;;3.95;;
8791;SDS011;4432;50.890;4.744;2023-06-14T09:36:27;6.10;;;4.05;;
8791;SDS011;4432;50.890;4.744;2023-06-14T09:38:56;4.65;;;3.88;;
8791;SDS011;4432;50.890;4.744;2023-06-14T09:41:33;7.35;;;3.88;;
8791;SDS011;4432;50.890;4.744;2023-06-14T09:44:04;4.80;;;3.70;;
8791;SDS011;4432;50.890;4.744;2023-06-14T09:46:34;5.90;;;3.42;;
8791;SDS011;4432;50.890;4.744;2023-06-14T09:49:01;3.78;;;3.47;;
8791;SDS011;4432;50.890;4.744;2023-06-14T09:51:28;6.75;;;3.53;;
8791;SDS011;4432;50.890;4.744;2023-06-14T09:54:01;4.95;;;3.00;;
8791;SDS011;4432;50.890;4.744;2023-06-14T09:56:31;5.22;;;3.53;;
8791;SDS011;4432;50.890;4.744;2023-06-14T09:59:03;9.18;;;3.55;;
8791;SDS011;4432;50.890;4.744;2023-06-14T10:01:33;4.90;;;3.00;;
8791;SDS011;4432;50.890;4.744;2023-06-14T10:04:01;5.78;;;3.13;;
8791;SDS011;4432;50.890;4.744;2023-06-14T10:06:31;8.23;;;3.10;;
8791;SDS011;4432;50.890;4.744;2023-06-14T10:09:02;3.17;;;2.88;;
8791;SDS011;4432;50.890;4.744;2023-06-14T10:11:29;4.88;;;3.25;;
8791;SDS011;4432;50.890;4.744;2023-06-14T10:13:55;6.18;;;3.60;;
8791;SDS011;4432;50.890;4.744;2023-06-14T10:16:27;3.72;;;3.00;;
8791;SDS011;4432;50.890;4.744;2023-06-14T10:22:04;2.97;;;2.78;;
8791;SDS011;4432;50.890;4.744;2023-06-14T10:24:38;4.55;;;2.75;;
8791;SDS011;4432;50.890;4.744;2023-06-14T10:27:08;5.80;;;3.25;;
8791;SDS011;4432;50.890;4.744;2023-06-14T10:32:20;3.10;;;2.72;;
8791;SDS011;4432;50.890;4.744;2023-06-14T10:34:46;2.80;;;2.60;;
8791;SDS011;4432;50.890;4.744;2023-06-14T10:37:21;7.57;;;3.10;;
8791;SDS011;4432;50.890;4.744;2023-06-14T10:39:47;3.43;;;3.00;;
8791;SDS011;4432;50.890;4.744;2023-06-14T10:42:14;3.30;;;3.00;;
8791;SDS011;4432;50.890;4.744;2023-06-14T10:47:20;3.77;;;2.67;;
8791;SDS011;4432;50.890;4.744;2023-06-14T10:50:04;3.40;;;3.03;;
8791;SDS011;4432;50.890;4.744;2023-06-14T10:52:42;3.60;;;3.20;;
8791;SDS011;4432;50.890;4.744;2023-06-14T10:55:09;3.07;;;2.77;;
8791;SDS011;4432;50.890;4.744;2023-06-14T10:57:40;4.17;;;3.07;;
8791;SDS011;4432;50.890;4.744;2023-06-14T11:00:07;3.10;;;2.80;;
8791;SDS011;4432;50.890;4.744;2023-06-14T11:05:25;3.73;;;2.80;;
8791;SDS011;4432;50.890;4.744;2023-06-14T11:10:41;2.87;;;2.47;;
8791;SDS011;4432;50.890;4.744;2023-06-14T11:13:08;3.27;;;3.00;;
8791;SDS011;4432;50.890;4.744;2023-06-14T11:15:35;3.60;;;2.40;;
8791;SDS011;4432;50.890;4.744;2023-06-14T11:18:03;6.73;;;2.53;;
8791;SDS011;4432;50.890;4.744;2023-06-14T11:20:32;5.10;;;2.50;;
8791;SDS011;4432;50.890;4.744;2023-06-14T11:22:59;2.60;;;2.40;;
8791;SDS011;4432;50.890;4.744;2023-06-14T11:25:26;4.60;;;2.87;;
8791;SDS011;4432;50.890;4.744;2023-06-14T11:27:55;4.07;;;2.60;;
8791;SDS011;4432;50.890;4.744;2023-06-14T11:30:22;4.33;;;3.00;;
8791;SDS011;4432;50.890;4.744;2023-06-14T11:32:51;3.13;;;2.30;;
8791;SDS011;4432;50.890;4.744;2023-06-14T11:35:19;3.33;;;2.50;;
8791;SDS011;4432;50.890;4.744;2023-06-14T11:37:48;4.07;;;2.90;;
8791;SDS011;4432;50.890;4.744;2023-06-14T11:40:17;3.60;;;2.70;;
8791;SDS011;4432;50.890;4.744;2023-06-14T11:42:43;3.10;;;2.80;;
8791;SDS011;4432;50.890;4.744;2023-06-14T11:45:09;4.10;;;2.63;;
8791;SDS011;4432;50.890;4.744;2023-06-14T11:47:37;3.33;;;2.70;;
8791;SDS011;4432;50.890;4.744;2023-06-14T11:50:04;5.47;;;2.80;;
8791;SDS011;4432;50.890;4.744;2023-06-14T11:52:32;2.97;;;2.60;;
8791;SDS011;4432;50.890;4.744;2023-06-14T11:54:58;4.07;;;2.70;;
8791;SDS011;4432;50.890;4.744;2023-06-14T11:57:24;5.27;;;2.77;;
8791;SDS011;4432;50.890;4.744;2023-06-14T11:59:50;3.30;;;2.80;;
8791;SDS011;4432;50.890;4.744;2023-06-14T12:02:18;8.00;;;2.40;;
8791;SDS011;4432;50.890;4.744;2023-06-14T12:04:47;2.47;;;2.23;;
8791;SDS011;4432;50.890;4.744;2023-06-14T12:07:16;6.30;;;2.33;;
8791;SDS011;4432;50.890;4.744;2023-06-14T12:12:20;4.20;;;2.50;;
8791;SDS011;4432;50.890;4.744;2023-06-14T12:14:47;2.80;;;2.23;;
8791;SDS011;4432;50.890;4.744;2023-06-14T12:17:13;2.53;;;2.20;;
8791;SDS011;4432;50.890;4.744;2023-06-14T12:19:43;2.00;;;1.90;;
8791;SDS011;4432;50.890;4.744;2023-06-14T12:22:10;2.37;;;2.17;;
8791;SDS011;4432;50.890;4.744;2023-06-14T12:24:36;2.80;;;2.37;;
8791;SDS011;4432;50.890;4.744;2023-06-14T12:27:03;2.33;;;2.00;;
8791;SDS011;4432;50.890;4.744;2023-06-14T12:29:29;4.13;;;2.00;;
8791;SDS011;4432;50.890;4.744;2023-06-14T12:31:58;3.83;;;2.00;;
8791;SDS011;4432;50.890;4.744;2023-06-14T12:34:24;3.00;;;2.27;;
8791;SDS011;4432;50.890;4.744;2023-06-14T12:36:52;2.90;;;2.20;;
8791;SDS011;4432;50.890;4.744;2023-06-14T12:39:18;3.23;;;2.30;;
8791;SDS011;4432;50.890;4.744;2023-06-14T12:41:45;3.07;;;2.30;;
8791;SDS011;4432;50.890;4.744;2023-06-14T12:44:11;3.43;;;2.60;;
8791;SDS011;4432;50.890;4.744;2023-06-14T12:46:37;2.23;;;2.03;;
8791;SDS011;4432;50.890;4.744;2023-06-14T12:49:04;3.67;;;2.17;;
8791;SDS011;4432;50.890;4.744;2023-06-14T12:51:32;1.80;;;1.70;;
8791;SDS011;4432;50.890;4.744;2023-06-14T12:53:58;5.73;;;1.50;;
8791;SDS011;4432;50.890;4.744;2023-06-14T12:56:24;2.10;;;1.90;;
8791;SDS011;4432;50.890;4.744;2023-06-14T12:58:51;2.20;;;2.00;;
8791;SDS011;4432;50.890;4.744;2023-06-14T13:01:17;2.63;;;1.90;;
8791;SDS011;4432;50.890;4.744;2023-06-14T13:03:43;2.07;;;1.80;;
8791;SDS011;4432;50.890;4.744;2023-06-14T13:06:09;5.60;;;1.50;;
8791;SDS011;4432;50.890;4.744;2023-06-14T13:08:35;1.73;;;1.53;;
8791;SDS011;4432;50.890;4.744;2023-06-14T13:11:01;2.50;;;1.60;;
8791;SDS011;4432;50.890;4.744;2023-06-14T13:13:27;1.47;;;1.37;;
8791;SDS011;4432;50.890;4.744;2023-06-14T13:15:52;4.27;;;1.67;;
8791;SDS011;4432;50.890;4.744;2023-06-14T13:18:18;3.90;;;1.40;;
8791;SDS011;4432;50.890;4.744;2023-06-14T13:20:45;26.07;;;2.73;;
8791;SDS011;4432;50.890;4.744;2023-06-14T13:23:11;7.90;;;1.67;;
8791;SDS011;4432;50.890;4.744;2023-06-14T13:25:37;1.60;;;1.23;;
8791;SDS011;4432;50.890;4.744;2023-06-14T13:28:04;1.10;;;1.00;;
8791;SDS011;4432;50.890;4.744;2023-06-14T13:30:30;3.73;;;1.30;;
8791;SDS011;4432;50.890;4.744;2023-06-14T13:32:57;3.47;;;1.23;;
8791;SDS011;4432;50.890;4.744;2023-06-14T13:35:23;1.93;;;1.47;;
8791;SDS011;4432;50.890;4.744;2023-06-14T13:37:49;1.90;;;1.30;;
8791;SDS011;4432;50.890;4.744;2023-06-14T13:40:16;1.50;;;1.40;;
8791;SDS011;4432;50.890;4.744;2023-06-14T13:42:41;7.27;;;1.53;;
8791;SDS011;4432;50.890;4.744;2023-06-14T13:45:08;2.17;;;1.40;;
8791;SDS011;4432;50.890;4.744;2023-06-14T13:47:35;1.40;;;1.30;;
8791;SDS011;4432;50.890;4.744;2023-06-14T13:50:01;1.53;;;1.40;;
8791;SDS011;4432;50.890;4.744;2023-06-14T13:52:28;1.63;;;1.50;;
8791;SDS011;4432;50.890;4.744;2023-06-14T13:54:53;1.83;;;1.33;;
8791;SDS011;4432;50.890;4.744;2023-06-14T13:57:19;2.67;;;1.33;;
8791;SDS011;4432;50.890;4.744;2023-06-14T13:59:46;2.13;;;1.40;;
8791;SDS011;4432;50.890;4.744;2023-06-14T14:02:12;1.43;;;1.33;;
8791;SDS011;4432;50.890;4.744;2023-06-14T14:04:38;2.57;;;1.53;;
8791;SDS011;4432;50.890;4.744;2023-06-14T14:07:04;1.40;;;1.30;;
8791;SDS011;4432;50.890;4.744;2023-06-14T14:09:34;1.30;;;1.20;;
8791;SDS011;4432;50.890;4.744;2023-06-14T14:12:01;5.30;;;1.23;;
8791;SDS011;4432;50.890;4.744;2023-06-14T14:14:27;2.63;;;1.37;;
8791;SDS011;4432;50.890;4.744;2023-06-14T14:16:53;2.17;;;1.30;;
8791;SDS011;4432;50.890;4.744;2023-06-14T14:19:21;1.40;;;1.20;;
8791;SDS011;4432;50.890;4.744;2023-06-14T14:21:47;1.87;;;1.57;;
8791;SDS011;4432;50.890;4.744;2023-06-14T14:24:13;2.33;;;1.60;;
8791;SDS011;4432;50.890;4.744;2023-06-14T14:26:39;2.07;;;1.60;;
8791;SDS011;4432;50.890;4.744;2023-06-14T14:29:05;1.67;;;1.50;;
8791;SDS011;4432;50.890;4.744;2023-06-14T14:31:31;1.60;;;1.50;;
8791;SDS011;4432;50.890;4.744;2023-06-14T14:33:57;1.60;;;1.50;;
8791;SDS011;4432;50.890;4.744;2023-06-14T14:36:23;1.60;;;1.50;;
8791;SDS011;4432;50.890;4.744;2023-06-14T14:38:49;1.40;;;1.30;;
8791;SDS011;4432;50.890;4.744;2023-06-14T14:41:17;1.50;;;1.40;;
8791;SDS011;4432;50.890;4.744;2023-06-14T14:43:42;3.83;;;1.33;;
8791;SDS011;4432;50.890;4.744;2023-06-14T14:46:08;1.90;;;1.70;;
8791;SDS011;4432;50.890;4.744;2023-06-14T14:48:34;2.00;;;1.50;;
8791;SDS011;4432;50.890;4.744;2023-06-14T14:51:00;6.70;;;1.60;;
8791;SDS011;4432;50.890;4.744;2023-06-14T14:53:26;4.37;;;1.80;;
8791;SDS011;4432;50.890;4.744;2023-06-14T14:55:52;1.83;;;1.60;;
8791;SDS011;4432;50.890;4.744;2023-06-14T14:58:17;2.80;;;1.50;;
8791;SDS011;4432;50.890;4.744;2023-06-14T15:00:44;1.80;;;1.70;;
8791;SDS011;4432;50.890;4.744;2023-06-14T15:03:10;1.63;;;1.53;;
8791;SDS011;4432;50.890;4.744;2023-06-14T15:05:36;1.47;;;1.37;;
8791;SDS011;4432;50.890;4.744;2023-06-14T15:08:02;3.13;;;1.47;;
8791;SDS011;4432;50.890;4.744;2023-06-14T15:10:29;2.40;;;1.53;;
8791;SDS011;4432;50.890;4.744;2023-06-14T15:12:54;4.13;;;1.70;;
8791;SDS011;4432;50.890;4.744;2023-06-14T15:15:21;1.67;;;1.57;;
8791;SDS011;4432;50.890;4.744;2023-06-14T15:17:47;1.30;;;1.30;;
8791;SDS011;4432;50.890;4.744;2023-06-14T15:20:13;1.77;;;1.53;;
8791;SDS011;4432;50.890;4.744;2023-06-14T15:22:40;2.20;;;1.80;;
8791;SDS011;4432;50.890;4.744;2023-06-14T15:25:06;3.40;;;1.57;;
8791;SDS011;4432;50.890;4.744;2023-06-14T15:27:32;3.00;;;1.50;;
8791;SDS011;4432;50.890;4.744;2023-06-14T15:29:58;3.10;;;1.60;;
8791;SDS011;4432;50.890;4.744;2023-06-14T15:32:24;1.70;;;1.60;;